Time;durP1;ratioP1;P1;durP2;ratioP2;P2;SDS_P1;SDS_P2;PMS_P1;PMS_P2;Temp;Humidity;BMP_temperature;BMP_pressure;BME280_temperature;BME280_humidity;BME280_pressure;Samples;Min_cycle;Max_cycle;Signal;HPM_P1;HPM_P2
2022/11/08 00:01:31;;;;;;;13.90;6.88;;;;;;;;;;5096661;28;20491;-68
2022/11/08 00:03:58;;;;;;;12.98;6.13;;;;;;;;;;5100550;28;20115;-68
2022/11/08 00:14:39;;;;;;;9.82;5.80;;;;;;;;;;5095769;28;20459;-68
2022/11/08 00:17:05;;;;;;;11.10;6.70;;;;;;;;;;5098568;28;20041;-68
2022/11/08 00:19:31;;;;;;;10.32;6.35;;;;;;;;;;5097495;28;20027;-68
2022/11/08 00:21:57;;;;;;;12.05;6.65;;;;;;;;;;5096115;28;20063;-68
2022/11/08 00:24:23;;;;;;;12.38;6.68;;;;;;;;;;5097654;28;20032;-68
2022/11/08 00:26:49;;;;;;;10.73;6.45;;;;;;;;;;5093692;28;20027;-68
2022/11/08 00:29:15;;;;;;;12.70;7.00;;;;;;;;;;5100997;28;20091;-71
2022/11/08 00:31:41;;;;;;;12.02;6.78;;;;;;;;;;5097419;28;20036;-68
2022/11/08 00:34:07;;;;;;;11.55;6.32;;;;;;;;;;5103318;28;20461;-68
2022/11/08 00:36:33;;;;;;;14.70;6.68;;;;;;;;;;5097440;28;20058;-68
2022/11/08 00:38:58;;;;;;;14.43;7.75;;;;;;;;;;5101200;28;20540;-69
2022/11/08 00:41:24;;;;;;;13.88;7.85;;;;;;;;;;5104675;28;20055;-68
2022/11/08 00:43:50;;;;;;;12.48;7.82;;;6.60;99.90;;;;;;5096528;28;20032;-68
2022/11/08 00:46:16;;;;;;;12.68;6.78;;;6.50;99.90;;;;;;5092574;28;20031;-70
2022/11/08 00:48:41;;;;;;;9.48;5.68;;;6.40;99.90;;;;;;5094024;28;20354;-68
2022/11/08 00:51:10;;;;;;;11.57;6.13;;;6.30;99.90;;;;;;5093183;28;20036;-68
2022/11/08 00:53:37;;;;;;;9.80;5.40;;;6.30;99.90;;;;;;5093563;28;20539;-68
2022/11/08 00:56:08;;;;;;;12.23;5.95;;;6.20;99.90;;;;;;5093931;28;20056;-69
2022/11/08 00:58:34;;;;;;;8.65;5.00;;;6.20;99.90;;;;;;5075656;28;20020;-68
2022/11/08 01:00:59;;;;;;;7.72;5.45;;;6.10;99.90;;;;;;5093741;28;20039;-68
2022/11/08 01:03:26;;;;;;;8.82;5.00;;;6.10;99.90;;;;;;5093504;28;20034;-69
2022/11/08 01:05:53;;;;;;;8.02;5.00;;;6.10;99.90;;;;;;5093622;28;20093;-68
2022/11/08 01:08:21;;;;;;;9.52;4.57;;;6.00;99.90;;;;;;5091957;28;20148;-68
2022/11/08 01:10:50;;;;;;;8.27;4.60;;;6.00;99.90;;;;;;5093769;28;20066;-68
2022/11/08 01:13:17;;;;;;;7.38;4.47;;;5.90;99.90;;;;;;5093696;28;20024;-70
2022/11/08 01:15:44;;;;;;;6.25;3.90;;;5.90;99.90;;;;;;5094030;28;20066;-68
2022/11/08 01:18:11;;;;;;;10.63;4.85;;;5.90;99.90;;;;;;5091995;28;20032;-68
2022/11/08 01:20:38;;;;;;;7.57;4.20;;;5.90;99.90;;;;;;5092264;28;20537;-68
2022/11/08 01:23:04;;;;;;;7.10;4.68;;;5.80;99.90;;;;;;5092851;28;20051;-68
2022/11/08 01:25:30;;;;;;;8.15;4.65;;;5.80;99.90;;;;;;5092130;28;20024;-68
2022/11/08 01:27:56;;;;;;;6.65;4.28;;;5.90;99.90;;;;;;5084529;28;20032;-68
2022/11/08 01:30:21;;;;;;;9.75;5.60;;;5.80;99.90;;;;;;5092719;28;20024;-68
2022/11/08 01:32:47;;;;;;;7.07;4.65;;;5.80;99.90;;;;;;5093590;28;20035;-68
2022/11/08 01:35:13;;;;;;;9.00;4.93;;;5.80;99.90;;;;;;5092734;28;20024;-68
2022/11/08 01:37:38;;;;;;;8.25;4.07;;;5.80;99.90;;;;;;5092371;28;20052;-68
2022/11/08 01:40:05;;;;;;;7.18;4.22;;;5.80;99.90;;;;;;5092571;28;20028;-68
2022/11/08 01:42:32;;;;;;;6.05;4.43;;;5.70;99.90;;;;;;5060132;28;20048;-68
2022/11/08 01:45:07;;;;;;;8.32;5.30;;;5.70;99.90;;;;;;5092912;28;20063;-68
2022/11/08 01:47:33;;;;;;;9.25;4.65;;;5.60;99.90;;;;;;5085415;28;20036;-68
2022/11/08 01:50:07;;;;;;;10.32;5.07;;;5.70;99.90;;;;;;5092723;28;20031;-68
2022/11/08 01:52:41;;;;;;;10.40;5.20;;;5.60;99.90;;;;;;5092459;28;20032;-68
2022/11/08 01:55:34;;;;;;;6.50;4.57;;;5.60;99.90;;;;;;5093079;28;20031;-68
2022/11/08 01:58:17;;;;;;;8.30;5.20;;;5.60;99.90;;;;;;5092151;28;20039;-67
2022/11/08 02:00:43;;;;;;;7.70;4.68;;;5.70;99.90;;;;;;5081485;28;20141;-70
2022/11/08 02:03:12;;;;;;;6.20;4.63;;;5.60;99.90;;;;;;5092857;28;20443;-68
2022/11/08 02:05:39;;;;;;;9.13;5.93;;;5.60;99.90;;;;;;5091727;28;20477;-69
2022/11/08 02:08:16;;;;;;;9.27;5.45;;;5.60;99.90;;;;;;5092734;28;20047;-68
2022/11/08 02:10:47;;;;;;;13.93;6.13;;;5.50;99.90;;;;;;5092418;28;20095;-68
2022/11/08 02:13:24;;;;;;;12.57;6.13;;;5.40;99.90;;;;;;5091364;28;20141;-68
2022/11/08 02:15:50;;;;;;;8.77;6.03;;;5.40;99.90;;;;;;5091351;28;20047;-69
2022/11/08 02:18:19;;;;;;;9.75;5.45;;;5.40;99.90;;;;;;5092193;28;20028;-71
2022/11/08 02:21:05;;;;;;;8.57;5.32;;;5.40;99.90;;;;;;5092329;28;20406;-69
2022/11/08 02:23:44;;;;;;;11.02;5.82;;;5.40;99.90;;;;;;5040170;28;20040;-69
2022/11/08 02:26:10;;;;;;;8.00;5.43;;;5.30;99.90;;;;;;5092031;28;20032;-69
2022/11/08 02:28:44;;;;;;;7.90;5.55;;;5.30;99.90;;;;;;5091536;28;20020;-69
2022/11/08 02:31:12;;;;;;;10.43;5.40;;;5.30;99.90;;;;;;5091318;28;20028;-68
2022/11/08 02:33:38;;;;;;;9.23;5.40;;;5.20;99.90;;;;;;5091460;28;20525;-69
2022/11/08 02:36:05;;;;;;;12.27;5.55;;;5.20;99.90;;;;;;5091580;28;20077;-69
2022/11/08 02:38:33;;;;;;;10.00;6.60;;;5.20;99.90;;;;;;5090901;28;20048;-69
2022/11/08 02:40:58;;;;;;;12.55;6.90;;;5.20;99.90;;;;;;5085969;28;20032;-69
2022/11/08 02:43:24;;;;;;;15.45;6.97;;;5.30;99.90;;;;;;5083317;28;20323;-69
2022/11/08 02:45:51;;;;;;;13.50;7.47;;;5.20;99.90;;;;;;5090984;28;20024;-69
2022/11/08 02:48:18;;;;;;;14.10;7.82;;;5.20;99.90;;;;;;5089122;28;20043;-72
2022/11/08 02:50:44;;;;;;;12.93;6.85;;;5.20;99.90;;;;;;5088564;28;20027;-69
2022/11/08 02:53:10;;;;;;;13.18;7.40;;;5.20;99.90;;;;;;5092168;28;20027;-69
2022/11/08 02:55:35;;;;;;;12.20;7.43;;;5.20;99.90;;;;;;5090661;28;20063;-69
2022/11/08 02:58:02;;;;;;;14.40;7.80;;;5.20;99.90;;;;;;5092246;28;20032;-70
2022/11/08 03:00:28;;;;;;;11.05;6.32;;;5.20;99.90;;;;;;5090982;28;20473;-70
2022/11/08 03:02:55;;;;;;;12.80;8.40;;;5.10;99.90;;;;;;5092151;28;20043;-68
2022/11/08 03:05:22;;;;;;;11.10;7.80;;;5.10;99.90;;;;;;5090518;28;20032;-70
2022/11/08 03:07:47;;;;;;;10.38;6.55;;;5.10;99.90;;;;;;5090466;28;20085;-70
2022/11/08 03:10:14;;;;;;;12.15;7.30;;;5.00;99.90;;;;;;5091518;28;20058;-73
2022/11/08 03:12:40;;;;;;;13.20;8.45;;;5.00;99.90;;;;;;5089667;28;20028;-70
2022/11/08 03:15:06;;;;;;;12.95;7.00;;;5.00;99.90;;;;;;5091226;28;20475;-68
2022/11/08 03:17:33;;;;;;;9.13;5.82;;;4.90;99.90;;;;;;5090963;28;20016;-69
2022/11/08 03:19:59;;;;;;;9.80;5.70;;;4.90;99.90;;;;;;5091173;28;20031;-69
2022/11/08 03:22:25;;;;;;;9.98;6.13;;;4.90;99.90;;;;;;5090759;28;20028;-70
2022/11/08 03:24:51;;;;;;;7.85;5.15;;;4.90;99.90;;;;;;5089869;28;20089;-69
2022/11/08 03:27:18;;;;;;;10.30;5.78;;;4.80;99.90;;;;;;5083057;28;20358;-72
2022/11/08 03:29:44;;;;;;;12.23;5.43;;;4.80;99.90;;;;;;5091084;28;20027;-70
2022/11/08 03:32:10;;;;;;;8.55;5.28;;;4.80;99.90;;;;;;5091490;28;20032;-70
2022/11/08 03:34:35;;;;;;;9.85;5.50;;;4.80;99.90;;;;;;5090227;28;20666;-69
2022/11/08 03:37:03;;;;;;;8.27;6.05;;;4.70;99.90;;;;;;5090868;28;20048;-70
2022/11/08 03:39:28;;;;;;;11.13;6.50;;;4.80;99.90;;;;;;5089206;28;20078;-70
2022/11/08 03:41:54;;;;;;;10.05;5.88;;;4.70;99.90;;;;;;5080402;28;20036;-70
2022/11/08 03:44:19;;;;;;;12.63;6.63;;;4.70;99.90;;;;;;5089628;28;20035;-70
2022/11/08 03:46:45;;;;;;;9.73;5.93;;;4.70;99.90;;;;;;5085683;28;20036;-69
2022/11/08 03:49:11;;;;;;;13.27;6.65;;;4.70;99.90;;;;;;5091458;28;20030;-68
2022/11/08 03:51:36;;;;;;;7.75;6.15;;;4.70;99.90;;;;;;5089891;28;20020;-69
2022/11/08 03:54:02;;;;;;;10.45;5.88;;;4.60;99.90;;;;;;5090705;28;20024;-70
2022/11/08 03:56:27;;;;;;;9.65;6.18;;;4.60;99.90;;;;;;5070832;28;20031;-70
2022/11/08 03:58:53;;;;;;;9.27;5.47;;;4.60;99.90;;;;;;5091109;28;20031;-68
2022/11/08 04:01:18;;;;;;;10.88;6.32;;;4.60;99.90;;;;;;5089760;28;20044;-68
2022/11/08 04:03:44;;;;;;;10.57;6.07;;;4.50;99.90;;;;;;5090810;28;20054;-68
2022/11/08 04:06:10;;;;;;;10.15;6.97;;;4.50;99.90;;;;;;5089866;28;20448;-68
2022/11/08 04:08:35;;;;;;;10.98;6.07;;;4.50;99.90;;;;;;5090253;28;20024;-68
2022/11/08 04:15:13;;;;;;;9.25;6.00;;;4.50;99.90;;;;;;5089298;28;20029;-69
2022/11/08 04:16:31;;;;;;;11.70;6.78;;;4.50;99.90;;;;;;5089543;28;20156;-68
2022/11/08 04:21:44;;;;;;;13.05;6.68;;;4.40;99.90;;;;;;5090059;28;20039;-68
2022/11/08 04:24:09;;;;;;;13.07;6.13;;;4.50;99.90;;;;;;5090486;28;20036;-68
2022/11/08 04:26:35;;;;;;;9.15;5.03;;;4.50;99.90;;;;;;5089398;28;20031;-68
2022/11/08 04:29:04;;;;;;;8.68;5.38;;;4.50;99.90;;;;;;5090348;28;20032;-69
2022/11/08 04:31:30;;;;;;;9.17;5.97;;;4.50;99.90;;;;;;5086373;28;20039;-69
2022/11/08 04:33:55;;;;;;;12.35;6.47;;;4.50;99.90;;;;;;5089986;28;20032;-69
2022/11/08 04:36:21;;;;;;;10.93;5.72;;;4.50;99.90;;;;;;5089079;28;20028;-69
2022/11/08 04:38:49;;;;;;;9.20;5.78;;;4.50;99.90;;;;;;5090866;28;20051;-69
2022/11/08 04:41:16;;;;;;;8.48;5.65;;;4.50;99.90;;;;;;5089685;28;20028;-72
2022/11/08 04:43:42;;;;;;;6.72;4.90;;;4.60;99.90;;;;;;5090317;28;20070;-69
2022/11/08 04:46:10;;;;;;;7.28;4.82;;;4.50;99.90;;;;;;5070358;28;20070;-69
2022/11/08 04:48:36;;;;;;;7.13;4.85;;;4.50;99.90;;;;;;5089984;28;20044;-69
2022/11/08 04:51:07;;;;;;;6.15;5.03;;;4.50;99.90;;;;;;5090265;28;20052;-69
2022/11/08 04:53:33;;;;;;;7.93;5.03;;;4.40;99.90;;;;;;5089787;28;20024;-68
2022/11/08 04:56:07;;;;;;;8.52;5.10;;;4.40;99.90;;;;;;5089642;28;20458;-68
2022/11/08 04:58:38;;;;;;;9.57;5.45;;;4.30;99.90;;;;;;5071641;28;20035;-70
2022/11/08 05:01:06;;;;;;;10.85;5.38;;;4.40;99.90;;;;;;5088082;28;20154;-71
2022/11/08 05:03:32;;;;;;;9.40;5.88;;;4.40;99.90;;;;;;5088760;28;20032;-70
2022/11/08 05:06:03;;;;;;;10.77;5.55;;;4.40;99.90;;;;;;5089809;28;20032;-69
2022/11/08 05:08:29;;;;;;;9.38;6.07;;;4.40;99.90;;;;;;5089949;28;20453;-69
2022/11/08 05:11:02;;;;;;;10.30;5.47;;;4.40;99.90;;;;;;5089732;28;20027;-69
2022/11/08 05:13:28;;;;;;;10.10;5.40;;;4.40;99.90;;;;;;5089257;28;20032;-69
2022/11/08 05:15:53;;;;;;;12.52;5.78;;;4.40;99.90;;;;;;5089877;28;20114;-68
2022/11/08 05:18:19;;;;;;;8.18;5.40;;;4.40;99.90;;;;;;5091898;28;20075;-68
2022/11/08 05:23:29;;;;;;;8.93;5.32;;;4.40;99.90;;;;;;5092759;28;20043;-68
2022/11/08 05:25:56;;;;;;;7.68;5.05;;;4.30;99.90;;;;;;5093284;28;20381;-68
2022/11/08 05:28:22;;;;;;;9.98;5.10;;;4.30;99.90;;;;;;5090458;28;20354;-69
2022/11/08 05:30:52;;;;;;;11.55;5.57;;;4.30;99.90;;;;;;5074671;28;20031;-69
2022/11/08 05:33:18;;;;;;;10.93;5.18;;;4.20;99.90;;;;;;5092941;28;20035;-71
2022/11/08 05:35:44;;;;;;;8.88;5.55;;;4.30;99.90;;;;;;5092418;28;20024;-70
2022/11/08 05:38:09;;;;;;;12.50;6.30;;;4.30;99.90;;;;;;5093115;28;20050;-70
2022/11/08 05:40:35;;;;;;;10.70;5.65;;;4.30;99.90;;;;;;5089989;28;20591;-69
2022/11/08 05:43:00;;;;;;;11.45;6.30;;;4.20;99.90;;;;;;5083902;28;20103;-69
2022/11/08 05:45:26;;;;;;;11.95;5.97;;;4.30;99.90;;;;;;5092139;28;20035;-69
2022/11/08 05:47:53;;;;;;;9.95;5.90;;;4.30;99.90;;;;;;5093521;28;20291;-69
2022/11/08 05:50:19;;;;;;;10.50;5.50;;;4.30;99.90;;;;;;5092303;28;20035;-68
2022/11/08 05:52:44;;;;;;;10.60;6.45;;;4.30;99.90;;;;;;5091881;28;20020;-69
2022/11/08 05:55:10;;;;;;;10.63;6.30;;;4.30;99.90;;;;;;5092594;28;20024;-69
2022/11/08 05:57:35;;;;;;;11.48;7.32;;;4.30;99.90;;;;;;5092312;28;20020;-70
2022/11/08 06:00:02;;;;;;;15.15;7.75;;;4.20;99.90;;;;;;5091965;28;20043;-69
2022/11/08 06:02:31;;;;;;;13.13;7.25;;;4.30;99.90;;;;;;5083084;28;20047;-70
2022/11/08 06:04:57;;;;;;;14.52;7.13;;;4.30;99.90;;;;;;5092399;28;20047;-69
2022/11/08 06:07:23;;;;;;;11.80;6.47;;;4.40;99.90;;;;;;5092719;28;20032;-70
2022/11/08 06:09:48;;;;;;;9.23;6.68;;;4.40;99.90;;;;;;5091725;28;20442;-69
2022/11/08 06:12:14;;;;;;;11.40;6.43;;;4.50;99.90;;;;;;5092735;28;20381;-73
2022/11/08 06:14:40;;;;;;;11.48;6.28;;;4.50;99.90;;;;;;5073684;28;20035;-70
2022/11/08 06:17:05;;;;;;;11.80;6.55;;;4.50;99.90;;;;;;5092595;28;20492;-69
2022/11/08 06:19:31;;;;;;;10.00;6.05;;;4.50;99.90;;;;;;5091367;28;20122;-69
2022/11/08 06:21:56;;;;;;;8.60;6.05;;;4.50;99.90;;;;;;5086190;28;20035;-69
2022/11/08 06:24:22;;;;;;;14.82;7.70;;;4.50;99.90;;;;;;5090162;28;20036;-70
2022/11/08 06:26:47;;;;;;;13.02;7.93;;;4.50;99.90;;;;;;5087102;28;20020;-70
2022/11/08 06:29:13;;;;;;;12.80;7.90;;;4.50;99.90;;;;;;5085377;28;20028;-74
2022/11/08 06:31:39;;;;;;;12.93;8.30;;;4.40;99.90;;;;;;5091530;28;20392;-71
2022/11/08 06:34:04;;;;;;;16.85;9.98;;;4.40;99.90;;;;;;5092576;28;20031;-72
2022/11/08 06:36:30;;;;;;;16.85;9.25;;;4.40;99.90;;;;;;5065481;28;20113;-71
2022/11/08 06:38:56;;;;;;;14.27;9.25;;;4.40;99.90;;;;;;5089149;28;20031;-71
2022/11/08 06:41:22;;;;;;;18.73;10.13;;;4.40;99.90;;;;;;5091243;28;20032;-72
2022/11/08 06:43:49;;;;;;;15.77;9.65;;;4.30;99.90;;;;;;5091414;28;20131;-70
2022/11/08 06:46:15;;;;;;;21.48;11.20;;;4.30;99.90;;;;;;5089374;28;20104;-78
2022/11/08 06:48:41;;;;;;;18.48;11.35;;;4.30;99.90;;;;;;5092305;28;20107;-72
2022/11/08 06:51:06;;;;;;;14.95;9.95;;;4.30;99.90;;;;;;5092099;28;20103;-70
2022/11/08 06:53:32;;;;;;;21.15;12.15;;;4.30;99.90;;;;;;5090039;28;20056;-71
2022/11/08 06:56:01;;;;;;;20.70;11.73;;;4.40;99.90;;;;;;5091116;28;20111;-75
2022/11/08 06:58:27;;;;;;;29.65;13.73;;;4.50;99.90;;;;;;5089374;28;20353;-70
2022/11/08 07:00:53;;;;;;;24.42;12.27;;;4.50;99.90;;;;;;5091903;28;20353;-73
2022/11/08 07:03:18;;;;;;;21.98;12.18;;;4.50;99.90;;;;;;5090550;28;20097;-72
2022/11/08 07:05:44;;;;;;;19.70;11.38;;;4.60;99.90;;;;;;5091361;28;20031;-68
2022/11/08 07:08:10;;;;;;;16.98;11.27;;;4.60;99.90;;;;;;5082699;28;20050;-68
2022/11/08 07:10:36;;;;;;;27.80;12.10;;;4.60;99.90;;;;;;5085095;28;20568;-68
2022/11/08 07:13:04;;;;;;;20.27;11.25;;;4.70;99.90;;;;;;5086799;28;20031;-68
2022/11/08 07:15:31;;;;;;;21.73;12.25;;;4.70;99.90;;;;;;5089960;28;20024;-69
2022/11/08 07:18:11;;;;;;;21.42;12.10;;;4.80;99.90;;;;;;5088683;28;20127;-68
2022/11/08 07:20:38;;;;;;;20.00;11.35;;;5.00;99.90;;;;;;5082027;28;20095;-69
2022/11/08 07:23:05;;;;;;;17.75;11.07;;;5.00;99.90;;;;;;5088466;28;20126;-69
2022/11/08 07:25:31;;;;;;;21.50;11.85;;;5.10;99.90;;;;;;5089267;28;20028;-69
2022/11/08 07:27:58;;;;;;;19.75;10.77;;;5.20;99.90;;;;;;5090511;28;20034;-69
2022/11/08 07:30:24;;;;;;;22.65;12.75;;;5.30;99.90;;;;;;5071536;28;20027;-69
2022/11/08 07:32:50;;;;;;;22.13;11.70;;;5.40;99.90;;;;;;5091212;28;20020;-69
2022/11/08 07:35:16;;;;;;;21.90;12.00;;;5.50;99.90;;;;;;5090337;28;20028;-73
2022/11/08 07:37:42;;;;;;;20.90;11.15;;;5.60;99.90;;;;;;5090445;28;20477;-70
2022/11/08 07:40:09;;;;;;;14.85;9.15;;;5.70;99.90;;;;;;5089702;28;20028;-68
2022/11/08 07:42:38;;;;;;;12.73;8.85;;;5.90;99.90;;;;;;5089454;28;20614;-69
2022/11/08 07:45:05;;;;;;;11.33;7.90;;;6.00;99.90;;;;;;5090511;28;20036;-69
2022/11/08 07:47:30;;;;;;;14.52;8.00;;;6.00;99.90;;;;;;5098204;28;20024;-69
2022/11/08 07:49:56;;;;;;;15.27;8.00;;;6.00;99.90;;;;;;5090169;28;20031;-67
2022/11/08 07:52:22;;;;;;;17.08;8.18;;;6.00;99.90;;;;;;5089715;28;20028;-69
2022/11/08 07:54:48;;;;;;;18.08;8.73;;;6.00;99.90;;;;;;5089951;28;20059;-68
2022/11/08 07:57:13;;;;;;;13.85;8.15;;;6.00;99.90;;;;;;5090657;28;20031;-71
2022/11/08 07:59:39;;;;;;;14.23;8.27;;;6.00;99.90;;;;;;5089313;28;20035;-68
2022/11/08 08:02:05;;;;;;;11.98;7.20;;;6.10;99.90;;;;;;5090295;28;20043;-70
2022/11/08 08:04:30;;;;;;;13.63;7.72;;;6.10;99.90;;;;;;5083825;28;20028;-70
2022/11/08 08:06:57;;;;;;;11.63;7.30;;;6.20;99.90;;;;;;5091104;28;20165;-70
2022/11/08 08:09:23;;;;;;;15.48;8.15;;;6.30;99.90;;;;;;5089182;28;20031;-70
2022/11/08 08:11:48;;;;;;;12.98;8.32;;;6.40;99.90;;;;;;5090295;28;20032;-70
2022/11/08 08:14:14;;;;;;;15.68;8.10;;;6.40;99.90;;;;;;5085107;28;20032;-73
2022/11/08 08:16:39;;;;;;;14.35;9.38;;;6.50;99.90;;;;;;5089017;28;20354;-70
2022/11/08 08:19:05;;;;;;;12.07;8.35;;;6.70;99.90;;;;;;5071929;28;20463;-70
2022/11/08 08:21:31;;;;;;;16.88;8.48;;;6.90;99.90;;;;;;5087686;28;20028;-69
2022/11/08 08:23:57;;;;;;;13.55;6.10;;;7.10;99.90;;;;;;5090290;28;20374;-69
2022/11/08 08:26:23;;;;;;;12.77;5.75;;;7.50;99.90;;;;;;5065081;28;20089;-72
2022/11/08 08:28:48;;;;;;;13.63;5.35;;;7.80;99.90;;;;;;5083195;28;20059;-70
2022/11/08 08:31:14;;;;;;;8.95;5.28;;;8.10;99.90;;;;;;5096602;28;20488;-74
2022/11/08 08:33:39;;;;;;;9.70;5.63;;;8.40;99.90;;;;;;5092913;28;20032;-71
2022/11/08 08:36:05;;;;;;;9.98;6.20;;;8.70;99.90;;;;;;5091502;28;20069;-72
2022/11/08 08:38:32;;;;;;;13.57;5.72;;;9.10;99.90;;;;;;5088343;28;20040;-73
2022/11/08 08:40:59;;;;;;;13.50;6.63;;;9.30;99.90;;;;;;5084431;28;20044;-72
2022/11/08 08:43:26;;;;;;;12.10;7.13;;;9.50;99.90;;;;;;5065050;28;20068;-71
2022/11/08 08:45:53;;;;;;;12.02;6.05;;;9.70;99.90;;;;;;5089253;28;20431;-73
2022/11/08 08:48:19;;;;;;;12.68;6.40;;;9.90;99.90;;;;;;5088680;28;20031;-72
2022/11/08 08:50:45;;;;;;;9.38;5.35;;;10.00;99.90;;;;;;5089362;28;20096;-70
2022/11/08 08:53:11;;;;;;;12.45;5.22;;;10.10;99.90;;;;;;5092576;28;20484;-72
2022/11/08 08:55:38;;;;;;;10.40;5.28;;;10.20;99.90;;;;;;5092316;28;20034;-70
2022/11/08 08:58:04;;;;;;;10.50;7.40;;;10.20;99.90;;;;;;5075303;28;20051;-71
2022/11/08 09:00:31;;;;;;;11.27;6.72;;;10.30;99.90;;;;;;5079134;28;20482;-71
2022/11/08 09:03:02;;;;;;;8.90;6.32;;;10.30;99.90;;;;;;5093155;28;20056;-71
2022/11/08 09:05:28;;;;;;;11.07;6.00;;;10.20;99.90;;;;;;5092470;28;20043;-70
2022/11/08 09:07:55;;;;;;;10.70;5.50;;;10.20;99.90;;;;;;5074854;28;20031;-71
2022/11/08 09:10:21;;;;;;;7.28;4.90;;;10.20;99.90;;;;;;5092060;28;20678;-70
2022/11/08 09:12:46;;;;;;;7.32;4.68;;;10.20;99.90;;;;;;5093656;28;20024;-70
2022/11/08 09:15:12;;;;;;;6.43;4.43;;;10.20;99.90;;;;;;5092857;28;20457;-71
2022/11/08 09:17:37;;;;;;;8.98;5.00;;;10.20;99.90;;;;;;5089105;28;20036;-70
2022/11/08 09:20:03;;;;;;;7.30;4.90;;;10.20;99.90;;;;;;5091686;28;20050;-71
2022/11/08 09:22:31;;;;;;;9.27;6.22;;;10.20;99.90;;;;;;5091577;28;20098;-71
2022/11/08 09:24:57;;;;;;;9.02;5.07;;;10.30;99.90;;;;;;5092435;28;20039;-71
2022/11/08 09:27:23;;;;;;;9.77;6.15;;;10.50;99.90;;;;;;5092436;28;20032;-71
2022/11/08 09:29:48;;;;;;;10.45;5.68;;;10.60;99.90;;;;;;5092647;28;20424;-71
2022/11/08 09:32:14;;;;;;;8.88;5.97;;;10.80;99.90;;;;;;5092667;28;20384;-72
2022/11/08 09:34:39;;;;;;;7.88;5.25;;;10.80;99.90;;;;;;5091629;28;20072;-70
2022/11/08 09:37:05;;;;;;;10.90;5.57;;;10.90;99.90;;;;;;5092363;28;20048;-71
2022/11/08 09:39:31;;;;;;;9.85;5.82;;;10.90;99.90;;;;;;5091753;28;20024;-70
2022/11/08 09:42:34;;;;;;;8.18;6.15;;;11.00;99.90;;;;;;5092652;28;20039;-70
2022/11/08 09:45:39;;;;;;;10.10;5.55;;;11.00;99.90;;;;;;5091211;28;20063;-71
2022/11/08 09:48:10;;;;;;;11.43;5.63;;;11.00;99.90;;;;;;5092511;28;20546;-73
2022/11/08 09:50:41;;;;;;;10.65;6.00;;;11.00;99.90;;;;;;5088573;28;20024;-71
2022/11/08 09:53:17;;;;;;;10.00;5.63;;;11.00;99.90;;;;;;5092656;28;20032;-70
2022/11/08 09:55:51;;;;;;;9.52;4.88;;;11.10;99.90;;;;;;5090721;28;20078;-70
2022/11/08 09:58:20;;;;;;;11.82;5.80;;;11.20;99.90;;;;;;5090504;28;20032;-73
2022/11/08 10:00:49;;;;;;;12.15;5.70;;;11.40;99.90;;;;;;5092022;28;20027;-70
2022/11/08 10:03:16;;;;;;;9.30;5.72;;;11.60;99.90;;;;;;5081246;28;20055;-73
2022/11/08 10:06:20;;;;;;;8.82;5.68;;;11.80;99.90;;;;;;5091757;28;20039;-71
2022/11/08 10:09:14;;;;;;;8.05;4.63;;;12.10;99.90;;;;;;5084674;28;20024;-70
2022/11/08 10:12:10;;;;;;;5.25;3.47;;;12.30;99.90;;;;;;5080046;28;20178;-70
2022/11/08 10:14:38;;;;;;;9.15;3.38;;;;;;;;;;5090114;28;20201;-70
2022/11/08 10:17:10;;;;;;;8.20;1.90;;;;;;;;;;5092464;28;20027;-70
2022/11/08 10:19:43;;;;;;;5.20;1.23;;;;;;;;;;5090973;28;20021;-70
2022/11/08 10:22:17;;;;;;;2.85;1.40;;;;;;;;;;5099891;28;20350;-70
2022/11/08 10:24:53;;;;;;;2.80;1.20;;;;;;;;;;5091983;28;20070;-70
2022/11/08 10:27:31;;;;;;;2.00;1.20;;;;;;;;;;5090864;28;20020;-70
2022/11/08 10:30:00;;;;;;;4.45;1.50;;;;;;;;;;5091675;28;20027;-71
2022/11/08 10:32:27;;;;;;;6.05;1.63;;;;;;;;;;5090710;28;20100;-70
2022/11/08 10:35:02;;;;;;;2.88;1.23;;;;;;;;;;5091444;28;20048;-70
2022/11/08 10:37:28;;;;;;;5.88;1.95;;;;;;;;;;5090821;28;20060;-70
2022/11/08 10:39:57;;;;;;;7.68;2.78;;;;;;;;;;5084727;28;20025;-69
2022/11/08 10:42:41;;;;;;;10.43;3.70;;;;;;;;;;5089468;28;20123;-70
2022/11/08 10:45:09;;;;;;;10.30;3.53;;;;;;;;;;5091155;28;20040;-69
2022/11/08 10:47:36;;;;;;;6.88;4.18;;;;;;;;;;5090213;28;20031;-70
2022/11/08 10:50:11;;;;;;;6.60;3.75;;;;;;;;;;5085928;28;20051;-70
2022/11/08 10:52:40;;;;;;;7.05;4.10;;;;;;;;;;5089434;28;20051;-70
2022/11/08 10:55:22;;;;;;;8.53;3.73;;;;;;;;;;5091103;28;20020;-69
2022/11/08 10:57:48;;;;;;;7.75;3.80;;;;;;;;;;5091559;28;20032;-69
2022/11/08 11:00:24;;;;;;;11.95;3.72;;;;;;;;;;5090420;28;20024;-73
2022/11/08 11:02:51;;;;;;;9.20;4.60;;;;;;;;;;5091477;28;20118;-69
2022/11/08 11:05:17;;;;;;;7.03;3.30;;;;;;;;;;5090439;28;20518;-73
2022/11/08 11:07:52;;;;;;;6.72;4.03;;;;;;;;;;5090972;28;20107;-70
2022/11/08 11:10:26;;;;;;;8.95;3.63;;;;;;;;;;5089985;28;20073;-71
2022/11/08 11:13:11;;;;;;;15.32;5.22;;;;;;;;;;5091519;28;20419;-70
2022/11/08 11:15:38;;;;;;;10.02;4.95;;;;;;;;;;5082638;28;20043;-70
2022/11/08 11:18:16;;;;;;;10.30;5.38;;;;;;;;;;5091225;28;20525;-71
2022/11/08 11:20:42;;;;;;;9.75;4.80;;;;;;;;;;5060614;28;20020;-71
2022/11/08 11:23:10;;;;;;;8.40;4.55;;;;;;;;;;5096970;28;20031;-70
2022/11/08 11:25:36;;;;;;;7.45;4.03;;;;;;;;;;5097404;28;20020;-70
2022/11/08 11:28:03;;;;;;;9.50;3.72;;;;;;;;;;5091197;28;20054;-70
2022/11/08 11:30:31;;;;;;;5.10;3.17;;;15.20;99.90;;;;;;5089712;28;20380;-71
2022/11/08 11:33:04;;;;;;;6.20;3.50;;;15.10;99.90;;;;;;5090998;28;20373;-71
2022/11/08 11:36:01;;;;;;;7.30;2.90;;;15.20;99.90;;;;;;5089730;28;20056;-70
2022/11/08 11:38:51;;;;;;;3.15;2.17;;;15.30;99.90;;;;;;5073778;28;20128;-70
2022/11/08 11:41:25;;;;;;;5.50;1.80;;;15.40;99.90;;;;;;5058832;28;20032;-73
2022/11/08 11:44:10;;;;;;;2.45;1.75;;;15.50;99.90;;;;;;5090636;28;20051;-70
2022/11/08 11:46:52;;;;;;;4.38;1.60;;;15.60;99.90;;;;;;5088788;28;20460;-71
2022/11/08 11:49:20;;;;;;;3.63;1.50;;;;;;;;;;5089280;28;20035;-72
2022/11/08 11:51:46;;;;;;;2.63;1.67;;;;;;;;;;5090796;28;20474;-69
2022/11/08 11:54:15;;;;;;;7.25;1.25;;;;;;;;;;5087347;28;20104;-70
2022/11/08 11:56:53;;;;;;;2.75;1.20;;;;;;;;;;5071937;28;20020;-71
2022/11/08 11:59:36;;;;;;;3.72;1.30;;;;;;;;;;5089868;28;20464;-73
2022/11/08 12:02:19;;;;;;;3.60;1.50;;;;;;;;;;5072575;28;20036;-72
2022/11/08 12:04:50;;;;;;;2.28;1.42;;;;;;;;;;5078691;28;20469;-80
2022/11/08 12:07:32;;;;;;;4.07;1.48;;;;;;;;;;5087308;28;20491;-74
2022/11/08 12:10:19;;;;;;;1.40;1.15;;;;;;;;;;5085279;28;20058;-71
2022/11/08 12:12:45;;;;;;;2.95;1.23;;;;;;;;;;5081314;28;20103;-71
2022/11/08 12:15:22;;;;;;;3.30;1.80;;;;;;;;;;5084239;28;20051;-73
2022/11/08 12:18:07;;;;;;;9.07;1.60;;;;;;;;;;5090809;28;20496;-72
2022/11/08 12:20:41;;;;;;;2.33;1.40;;;;;;;;;;5084538;28;20008;-72
2022/11/08 12:23:15;;;;;;;1.40;1.30;;;;;;;;;;5090527;28;20032;-72
2022/11/08 12:25:59;;;;;;;5.13;1.20;;;;;;;;;;5071164;28;20032;-71
2022/11/08 12:28:44;;;;;;;3.10;1.70;;;;;;;;;;5092852;28;20059;-72
2022/11/08 12:31:28;;;;;;;2.15;1.40;;;19.10;97.30;;;;;;5093922;28;20023;-72
2022/11/08 12:34:00;;;;;;;4.35;1.55;;;19.10;95.60;;;;;;5094369;28;20041;-73
2022/11/08 12:36:47;;;;;;;3.63;1.65;;;19.20;95.70;;;;;;5092049;28;20020;-73
2022/11/08 12:39:34;;;;;;;5.63;1.50;;;19.50;95.50;;;;;;5094838;28;20032;-72
2022/11/08 12:42:21;;;;;;;4.55;1.85;;;19.70;94.80;;;;;;5092548;28;20036;-72
2022/11/08 12:44:56;;;;;;;1.40;1.20;;;20.10;99.90;;;;;;5087671;28;20024;-73
2022/11/08 12:47:21;;;;;;;2.35;1.52;;;;;;;;;;5093513;28;20105;-73
2022/11/08 12:49:56;;;;;;;3.97;2.15;;;;;;;;;;5093006;28;20099;-72
2022/11/08 12:52:47;;;;;;;2.35;1.40;;;20.50;92.20;;;;;;5075349;28;20387;-72
2022/11/08 12:55:24;;;;;;;5.47;1.45;;;21.60;84.90;;;;;;5054133;28;20044;-71
2022/11/08 12:57:52;;;;;;;1.23;1.00;;;21.60;83.50;;;;;;5094457;28;20032;-71
2022/11/08 13:00:18;;;;;;;1.30;1.10;;;21.50;82.90;;;;;;5092922;28;20047;-76
2022/11/08 13:02:59;;;;;;;4.35;1.10;;;21.50;82.40;;;;;;5086410;28;20051;-72
2022/11/08 13:05:34;;;;;;;2.60;1.30;;;21.20;81.90;;;;;;5092203;28;20039;-73
2022/11/08 13:08:14;;;;;;;2.20;1.00;;;20.80;82.90;;;;;;5093275;28;20035;-73
2022/11/08 13:10:59;;;;;;;5.63;1.63;;;20.50;83.30;;;;;;5093131;28;20077;-73
2022/11/08 13:13:59;;;;;;;3.53;1.00;;;20.00;84.00;;;;;;5092837;28;20040;-73
2022/11/08 13:16:38;;;;;;;1.37;1.10;;;19.60;85.20;;;;;;5076061;28;20036;-71
2022/11/08 13:19:04;;;;;;;2.42;1.27;;;19.30;86.50;;;;;;5094043;28;20024;-73
2022/11/08 13:21:39;;;;;;;1.88;1.20;;;19.10;86.80;;;;;;5091452;28;20085;-72
2022/11/08 13:24:05;;;;;;;1.92;1.20;;;19.00;87.90;;;;;;5093636;28;20042;-74
2022/11/08 13:26:41;;;;;;;3.17;1.40;;;18.90;89.00;;;;;;5073774;28;20024;-72
2022/11/08 13:29:15;;;;;;;3.45;1.27;;;18.80;90.30;;;;;;5082395;28;20032;-72
2022/11/08 13:31:49;;;;;;;2.60;1.30;;;18.70;90.30;;;;;;5092421;28;20043;-72
2022/11/08 13:34:34;;;;;;;2.95;1.70;;;18.60;90.40;;;;;;5092961;28;20464;-77
2022/11/08 13:37:36;;;;;;;3.83;1.40;;;18.50;90.60;;;;;;5092928;28;20535;-73